Time;durP1;ratioP1;P1;durP2;ratioP2;P2;SDS_P1;SDS_P2;PMS_P1;PMS_P2;Temp;Humidity;BMP_temperature;BMP_pressure;BME280_temperature;BME280_humidity;BME280_pressure;Samples;Min_cycle;Max_cycle;Signal;HPM_P1;HPM_P2
2023/05/24 00:00:45;;;;;;;10.55;4.25;;;14.20;90.60;;;13.50;98.41;97615.09;6155510;23;20742;-78
2023/05/24 00:03:14;;;;;;;6.47;4.20;;;14.20;90.40;;;13.54;99.70;97620.66;6154399;23;20413;-77
2023/05/24 00:05:40;;;;;;;7.63;3.90;;;14.20;90.70;;;13.55;99.98;97617.75;6155201;23;20381;-77
2023/05/24 00:08:07;;;;;;;10.13;4.25;;;14.20;90.90;;;13.54;99.93;97615.34;6155705;23;20395;-78
2023/05/24 00:10:33;;;;;;;12.88;4.50;;;14.20;90.80;;;13.55;100.00;97617.75;6156347;23;20376;-77
2023/05/24 00:12:58;;;;;;;10.80;4.40;;;14.20;90.80;;;13.51;100.00;97615.91;6154770;23;20371;-78
2023/05/24 00:15:24;;;;;;;8.20;3.83;;;14.20;91.00;;;13.43;100.00;97616.41;6155961;23;20485;-78
2023/05/24 00:17:50;;;;;;;8.07;4.67;;;14.10;90.80;;;13.38;100.00;97617.19;6155187;23;20377;-78
2023/05/24 00:20:19;;;;;;;10.33;4.70;;;14.10;91.10;;;13.34;100.00;97610.81;6155095;23;20406;-77
2023/05/24 00:22:46;;;;;;;9.43;4.33;;;14.10;91.60;;;13.35;100.00;97608.94;6155396;23;20680;-78
2023/05/24 00:25:13;;;;;;;8.30;4.13;;;14.00;91.10;;;13.37;100.00;97606.84;6155210;23;20398;-79
2023/05/24 00:27:39;;;;;;;7.57;4.32;;;14.00;91.30;;;13.32;100.00;97606.81;6155046;23;20763;-79
2023/05/24 00:30:07;;;;;;;9.60;4.18;;;14.00;91.30;;;13.30;100.00;97599.13;6155490;23;20398;-79
2023/05/24 00:32:34;;;;;;;8.40;3.90;;;14.00;91.40;;;13.26;100.00;97595.38;6153951;23;20859;-79
2023/05/24 00:35:01;;;;;;;7.97;4.25;;;14.00;91.80;;;13.34;100.00;97597.50;6157316;23;20375;-80
2023/05/24 00:37:28;;;;;;;7.53;4.05;;;14.00;91.60;;;13.38;100.00;97595.91;6157561;23;20370;-80
2023/05/24 00:39:54;;;;;;;8.32;4.10;;;14.00;92.10;;;13.42;100.00;97596.19;6157619;23;20371;-79
2023/05/24 00:42:22;;;;;;;9.63;4.25;;;14.10;92.20;;;13.39;100.00;97588.72;6158606;23;20406;-80
2023/05/24 00:44:48;;;;;;;12.60;5.28;;;14.00;91.80;;;13.34;100.00;97578.09;6157670;23;20850;-78
2023/05/24 00:47:17;;;;;;;11.18;4.18;;;14.00;91.90;;;13.37;100.00;97586.38;6157251;23;20851;-78
2023/05/24 00:49:43;;;;;;;9.15;4.30;;;14.00;92.10;;;13.35;100.00;97583.16;6156790;23;20378;-79
2023/05/24 00:52:09;;;;;;;9.43;4.53;;;14.10;92.60;;;13.37;100.00;97593.53;6156478;23;20382;-80
2023/05/24 00:54:35;;;;;;;6.88;3.78;;;14.00;92.10;;;13.31;100.00;97597.22;6155444;23;20375;-79
2023/05/24 00:57:01;;;;;;;7.30;4.25;;;14.00;91.90;;;13.17;100.00;97596.94;6157027;23;20370;-80
2023/05/24 00:59:28;;;;;;;12.93;4.73;;;13.90;91.90;;;13.25;100.00;97585.78;6156184;23;20386;-78
2023/05/24 01:01:54;;;;;;;10.32;3.85;;;13.90;92.30;;;13.18;100.00;97591.38;6156391;23;20410;-78
2023/05/24 01:04:21;;;;;;;9.43;4.05;;;13.90;91.80;;;13.24;100.00;97594.81;6157584;23;20457;-78
2023/05/24 01:07:03;;;;;;;10.23;4.25;;;13.90;91.90;;;13.21;100.00;97597.22;6155390;23;20394;-78
2023/05/24 01:09:43;;;;;;;13.25;4.05;;;13.90;92.00;;;13.20;100.00;97593.75;6157113;23;20370;-78
2023/05/24 01:12:22;;;;;;;8.80;4.03;;;13.90;92.30;;;13.09;100.00;97598.22;6133923;23;20369;-78
2023/05/24 01:15:05;;;;;;;12.07;4.50;;;13.80;92.00;;;13.05;100.00;97599.81;6156835;23;20454;-76
2023/05/24 01:17:41;;;;;;;9.43;3.90;;;13.80;92.40;;;13.24;100.00;97597.47;6154456;23;20863;-80
2023/05/24 01:20:12;;;;;;;11.05;4.35;;;13.80;92.50;;;13.25;100.00;97592.97;6155400;23;20446;-76
2023/05/24 01:23:13;;;;;;;8.00;4.30;;;13.90;92.20;;;13.08;100.00;97593.19;6130664;23;20442;-78
2023/05/24 01:26:02;;;;;;;11.70;4.07;;;13.80;91.70;;;12.95;100.00;97596.31;6157133;23;20364;-78
2023/05/24 01:28:32;;;;;;;14.25;4.90;;;13.70;91.80;;;12.93;100.00;97593.13;6156915;23;20371;-79
2023/05/24 01:30:59;;;;;;;10.32;4.70;;;13.60;92.20;;;12.88;100.00;97596.56;6158035;23;20378;-78
2023/05/24 01:33:26;;;;;;;11.73;4.32;;;13.60;92.20;;;12.95;100.00;97589.13;6156653;23;20378;-80
2023/05/24 01:35:51;;;;;;;12.90;4.03;;;13.60;92.10;;;12.93;100.00;97590.47;6157220;23;20493;-78
2023/05/24 01:38:17;;;;;;;11.88;4.22;;;13.60;92.30;;;12.97;100.00;97586.22;6156992;23;20371;-80
2023/05/24 01:40:46;;;;;;;13.30;4.53;;;13.70;92.20;;;12.91;100.00;97584.63;6131440;23;20502;-80
2023/05/24 01:43:17;;;;;;;14.25;4.43;;;13.60;91.60;;;12.94;100.00;97586.72;6155997;23;20704;-78
2023/05/24 01:45:56;;;;;;;9.77;4.40;;;13.60;91.60;;;12.95;100.00;97583.81;6157088;23;20390;-77
2023/05/24 01:48:38;;;;;;;15.35;4.72;;;13.70;91.90;;;13.03;100.00;97596.59;6156646;23;20450;-79
2023/05/24 01:51:07;;;;;;;21.52;5.15;;;13.60;91.50;;;12.93;100.00;97606.41;6157027;23;20363;-80
2023/05/24 01:53:40;;;;;;;15.30;4.82;;;13.70;90.90;;;12.95;99.42;97599.75;6157312;23;20398;-78
2023/05/24 01:56:06;;;;;;;10.25;4.30;;;13.60;90.90;;;12.99;100.00;97592.88;6157257;23;20378;-79
2023/05/24 01:58:34;;;;;;;13.20;4.38;;;13.60;91.10;;;12.99;99.87;97595.53;6157375;23;20371;-79
2023/05/24 02:01:02;;;;;;;16.65;5.10;;;13.70;91.00;;;12.88;98.71;97599.22;6156870;23;20418;-79
2023/05/24 02:03:28;;;;;;;13.93;5.20;;;13.60;90.60;;;12.86;98.52;97600.50;6157705;23;20728;-78
2023/05/24 02:05:54;;;;;;;15.45;4.40;;;13.50;90.60;;;12.86;98.75;97598.66;6157685;23;20379;-79
2023/05/24 02:08:20;;;;;;;15.07;4.70;;;13.60;90.70;;;12.77;96.78;97593.06;6157045;23;20886;-79
2023/05/24 02:10:46;;;;;;;10.75;4.28;;;13.50;90.10;;;12.81;96.25;97596.00;6157600;23;20776;-78
2023/05/24 02:13:12;;;;;;;14.77;4.88;;;13.40;90.10;;;12.76;98.21;97601.31;6157339;23;20375;-78
2023/05/24 02:15:40;;;;;;;12.88;4.32;;;13.40;90.60;;;12.75;95.61;97597.84;6155317;23;20371;-80
2023/05/24 02:18:10;;;;;;;15.80;4.82;;;13.50;90.00;;;12.76;94.36;97596.78;6156939;23;20378;-79
2023/05/24 02:20:36;;;;;;;17.60;4.57;;;13.50;89.20;;;12.67;95.22;97600.19;6157268;23;20371;-78
2023/05/24 02:23:02;;;;;;;20.80;5.22;;;13.40;89.60;;;12.63;96.73;97604.44;6156924;23;20450;-79
2023/05/24 02:25:30;;;;;;;12.65;5.00;;;13.30;90.20;;;12.61;95.52;97603.88;6156716;23;20411;-78
2023/05/24 02:27:56;;;;;;;13.73;4.95;;;13.30;90.00;;;12.65;97.08;97597.78;6156316;23;20383;-78
2023/05/24 02:30:22;;;;;;;14.15;4.70;;;13.40;90.40;;;12.80;95.41;97605.81;6131262;23;20378;-79
2023/05/24 02:32:48;;;;;;;12.88;4.55;;;13.40;90.00;;;12.59;95.53;97601.47;6157053;23;20414;-78
2023/05/24 02:35:15;;;;;;;13.23;4.60;;;13.30;89.80;;;12.62;96.73;97608.13;6156762;23;20405;-78
2023/05/24 02:37:41;;;;;;;13.65;4.63;;;13.40;90.30;;;12.54;96.97;97606.78;6156393;23;20418;-78
2023/05/24 02:40:08;;;;;;;13.07;4.80;;;13.30;90.30;;;12.49;97.11;97609.38;6155616;23;20375;-79
2023/05/24 02:42:36;;;;;;;17.35;4.80;;;13.20;90.30;;;12.43;96.91;97597.16;6155389;23;20469;-76
2023/05/24 02:45:04;;;;;;;14.18;5.30;;;13.20;90.30;;;12.50;96.06;97604.88;6156174;23;20458;-77
2023/05/24 02:47:30;;;;;;;18.25;4.47;;;13.20;90.20;;;12.45;96.47;97604.84;6153590;23;20391;-78
2023/05/24 02:49:56;;;;;;;18.07;4.87;;;13.20;90.20;;;12.37;97.26;97604.28;6155037;23;20376;-79
2023/05/24 02:52:23;;;;;;;19.60;5.37;;;13.10;90.50;;;12.35;97.49;97601.09;6156914;23;20442;-79
2023/05/24 02:54:49;;;;;;;15.85;4.82;;;13.10;90.50;;;12.38;99.68;97610.41;6156905;23;20453;-77
2023/05/24 02:57:15;;;;;;;16.38;5.22;;;13.10;91.10;;;12.28;99.03;97608.47;6157379;23;20433;-78
2023/05/24 02:59:42;;;;;;;15.25;5.22;;;13.00;90.90;;;12.28;99.86;97610.31;6157312;23;20934;-78
2023/05/24 03:02:08;;;;;;;13.55;5.30;;;13.00;91.10;;;12.22;99.85;97600.75;6156763;23;20371;-78
2023/05/24 03:04:34;;;;;;;14.27;4.82;;;13.00;91.00;;;12.25;100.00;97595.72;6156762;23;20367;-78
2023/05/24 03:07:00;;;;;;;14.77;4.90;;;12.90;91.70;;;12.21;100.00;97591.97;6156954;23;20391;-79
2023/05/24 03:09:27;;;;;;;17.85;5.63;;;12.90;91.60;;;12.19;100.00;97604.69;6157595;23;20395;-77
2023/05/24 03:11:53;;;;;;;15.60;5.30;;;12.90;91.70;;;12.07;100.00;97595.31;6156227;23;20375;-78
2023/05/24 03:14:21;;;;;;;15.17;5.27;;;12.90;91.60;;;12.06;100.00;97594.53;6155201;23;20461;-77
2023/05/24 03:16:47;;;;;;;16.20;5.30;;;12.80;91.90;;;12.08;100.00;97600.38;6157093;23;20367;-77
2023/05/24 03:19:18;;;;;;;17.55;5.45;;;12.80;92.00;;;12.02;100.00;97601.41;6157184;23;20381;-79
2023/05/24 03:21:44;;;;;;;14.38;4.68;;;12.70;92.10;;;11.97;100.00;97599.50;6157782;23;20375;-77
2023/05/24 03:24:12;;;;;;;14.33;4.90;;;12.70;92.50;;;11.85;100.00;97598.88;6156828;23;20449;-79
2023/05/24 03:26:39;;;;;;;17.30;5.22;;;12.60;91.80;;;11.82;100.00;97601.25;6156256;23;20495;-79
2023/05/24 03:29:05;;;;;;;15.40;5.57;;;12.60;92.00;;;11.85;100.00;97598.88;6155877;23;20378;-79
2023/05/24 03:31:31;;;;;;;13.93;4.68;;;12.60;92.70;;;11.93;100.00;97598.44;6156198;23;20371;-79
2023/05/24 03:33:57;;;;;;;14.40;4.78;;;12.60;92.30;;;11.78;100.00;97600.97;6156079;23;20422;-79
2023/05/24 03:36:25;;;;;;;16.77;5.22;;;12.60;92.60;;;11.72;100.00;97601.94;6156507;23;20395;-78
2023/05/24 03:38:50;;;;;;;15.25;5.07;;;12.50;92.60;;;11.81;100.00;97596.97;6156289;23;20394;-78
2023/05/24 03:41:16;;;;;;;16.70;5.50;;;12.60;92.80;;;11.84;100.00;97599.94;6155306;23;20443;-79
2023/05/24 03:43:44;;;;;;;17.40;5.32;;;12.50;92.70;;;11.71;100.00;97602.19;6154249;23;20371;-79
2023/05/24 03:46:10;;;;;;;15.80;5.40;;;12.50;92.40;;;11.80;100.00;97606.00;6154505;23;20397;-79
2023/05/24 03:48:36;;;;;;;15.80;5.20;;;12.50;92.90;;;11.80;100.00;97603.38;6152238;23;20465;-78
2023/05/24 03:51:02;;;;;;;18.30;5.20;;;12.50;93.00;;;11.69;100.00;97602.44;6155480;23;20371;-78
2023/05/24 03:53:28;;;;;;;17.40;5.32;;;12.40;92.90;;;11.78;100.00;97602.81;6156075;23;20375;-78
2023/05/24 03:55:54;;;;;;;16.10;6.47;;;12.50;93.30;;;11.73;100.00;97600.09;6156596;23;20517;-80
2023/05/24 03:58:21;;;;;;;15.65;4.90;;;12.40;93.10;;;11.69;100.00;97601.63;6156152;23;20390;-77
2023/05/24 04:00:49;;;;;;;12.52;5.45;;;12.50;93.40;;;11.68;100.00;97600.03;6155347;23;20704;-79
2023/05/24 04:03:18;;;;;;;17.80;5.78;;;12.40;93.10;;;11.57;100.00;97597.31;6129332;23;20371;-78
2023/05/24 04:05:44;;;;;;;20.40;5.35;;;12.30;93.20;;;11.52;100.00;97597.25;6155965;23;20375;-78
2023/05/24 04:08:11;;;;;;;17.45;5.30;;;12.30;93.30;;;11.42;100.00;97593.72;6156500;23;20375;-78
2023/05/24 04:10:37;;;;;;;22.20;5.18;;;12.20;93.60;;;11.46;100.00;97590.31;6158013;23;20695;-79
2023/05/24 04:13:03;;;;;;;18.77;6.05;;;12.20;94.00;;;11.54;100.00;97586.41;6153354;23;20461;-79
2023/05/24 04:15:29;;;;;;;24.15;5.32;;;12.20;94.00;;;11.54;100.00;97595.16;6155018;23;20474;-78
2023/05/24 04:17:59;;;;;;;18.15;5.45;;;12.30;94.00;;;11.64;100.00;97591.78;6156589;23;20426;-78
2023/05/24 04:20:26;;;;;;;16.63;5.28;;;12.30;94.10;;;11.52;100.00;97581.34;6157579;23;20830;-78
2023/05/24 04:22:54;;;;;;;15.35;5.00;;;12.30;93.70;;;11.54;100.00;97594.34;6155844;23;20377;-78
2023/05/24 04:25:21;;;;;;;17.92;5.53;;;12.30;93.60;;;11.58;100.00;97592.78;6157053;23;20377;-78
2023/05/24 04:27:47;;;;;;;16.13;5.13;;;12.30;93.70;;;11.56;100.00;97587.75;6155982;23;20387;-79
2023/05/24 04:30:15;;;;;;;20.80;5.40;;;12.30;93.70;;;11.58;100.00;97588.28;6157251;23;20784;-80
2023/05/24 04:32:43;;;;;;;19.73;4.97;;;12.30;93.20;;;11.73;100.00;97592.91;6154448;23;20383;-79
2023/05/24 04:35:11;;;;;;;18.77;5.20;;;12.40;93.60;;;11.66;100.00;97592.31;6154546;23;20375;-78
2023/05/24 04:37:37;;;;;;;16.38;5.10;;;12.40;93.20;;;11.69;100.00;97594.47;6156793;23;20418;-80
2023/05/24 04:40:04;;;;;;;21.70;5.28;;;12.40;93.20;;;11.73;100.00;97597.44;6156833;23;20370;-80
2023/05/24 04:42:30;;;;;;;16.73;5.55;;;12.50;93.30;;;11.82;100.00;97604.69;6156538;23;20375;-81
2023/05/24 04:44:56;;;;;;;15.60;4.97;;;12.50;93.80;;;11.96;100.00;97605.06;6157810;23;20371;-79
2023/05/24 04:47:22;;;;;;;15.45;5.40;;;12.60;93.20;;;11.93;100.00;97605.59;6159086;23;20383;-79
2023/05/24 04:49:48;;;;;;;14.70;5.13;;;12.60;92.80;;;11.91;100.00;97605.03;6159456;23;20375;-79
2023/05/24 04:52:16;;;;;;;20.63;5.57;;;12.60;93.00;;;11.85;100.00;97616.66;6160529;23;20373;-78
2023/05/24 04:54:42;;;;;;;15.25;5.47;;;12.60;93.20;;;11.91;100.00;97618.28;6162060;23;20378;-79
2023/05/24 04:57:08;;;;;;;19.48;5.00;;;12.60;92.70;;;11.88;100.00;97619.59;6166594;23;20379;-79
2023/05/24 04:59:34;;;;;;;17.80;4.97;;;12.60;92.70;;;11.86;100.00;97618.25;6169347;23;20371;-79
2023/05/24 05:01:59;;;;;;;15.30;5.43;;;12.60;92.70;;;11.91;100.00;97627.06;6160183;23;20386;-79
2023/05/24 05:04:25;;;;;;;20.05;5.63;;;12.60;92.30;;;11.96;100.00;97624.44;6157110;23;20422;-80
2023/05/24 05:06:51;;;;;;;13.85;4.90;;;12.60;92.20;;;12.05;100.00;97618.66;6158829;23;20438;-80
2023/05/24 05:09:20;;;;;;;19.88;5.72;;;12.70;92.70;;;11.91;100.00;97629.72;6157974;23;20456;-80
2023/05/24 05:11:47;;;;;;;14.70;4.82;;;12.70;92.50;;;12.01;100.00;97632.44;6129824;23;20445;-78
2023/05/24 05:14:13;;;;;;;17.38;4.97;;;12.70;92.30;;;12.08;100.00;97640.19;6155469;23;20425;-78
2023/05/24 05:16:40;;;;;;;14.73;4.75;;;12.70;92.20;;;12.16;100.00;97634.41;6156628;23;20446;-79
2023/05/24 05:19:07;;;;;;;24.27;5.68;;;12.80;91.90;;;12.19;100.00;97641.84;6156483;23;20374;-78
2023/05/24 05:21:33;;;;;;;16.75;5.22;;;12.90;91.60;;;12.22;100.00;97627.28;6154813;23;20382;-79
2023/05/24 05:24:01;;;;;;;14.80;5.72;;;12.90;91.60;;;12.22;100.00;97629.94;6155883;23;20379;-78
2023/05/24 05:26:29;;;;;;;17.05;5.43;;;12.90;91.40;;;12.34;100.00;97639.28;6130452;23;20944;-78
2023/05/24 05:28:56;;;;;;;21.13;5.73;;;12.90;92.00;;;12.33;100.00;97639.53;6130136;23;20367;-78
2023/05/24 05:31:22;;;;;;;23.07;5.10;;;13.00;91.30;;;12.33;99.36;97635.03;6156013;23;20862;-79
2023/05/24 05:33:48;;;;;;;23.48;5.30;;;13.00;91.10;;;12.32;98.60;97632.66;6157083;23;20370;-78
2023/05/24 05:36:16;;;;;;;15.75;5.28;;;13.00;90.80;;;12.29;100.00;97633.16;6155643;23;20410;-77
2023/05/24 05:38:42;;;;;;;17.45;5.28;;;13.00;91.10;;;12.34;100.00;97630.53;6154335;23;20525;-77
2023/05/24 05:41:08;;;;;;;15.02;5.78;;;13.00;91.30;;;12.43;100.00;97631.66;6157253;23;20792;-78
2023/05/24 05:43:37;;;;;;;20.00;5.95;;;13.10;91.50;;;12.27;98.73;97630.75;6157125;23;20372;-78
2023/05/24 05:46:03;;;;;;;22.00;5.70;;;13.00;90.80;;;12.36;98.66;97628.44;6156989;23;20462;-79
2023/05/24 05:48:30;;;;;;;23.27;5.82;;;13.00;90.80;;;12.42;100.00;97630.06;6155626;23;20375;-79
2023/05/24 05:50:56;;;;;;;17.75;4.80;;;13.10;91.40;;;12.48;99.34;97633.56;6156996;23;20367;-78
2023/05/24 05:53:22;;;;;;;17.17;4.90;;;13.10;91.00;;;12.45;98.97;97623.44;6156184;23;20367;-79
2023/05/24 05:55:48;;;;;;;25.80;5.57;;;13.20;90.90;;;12.48;98.33;97617.63;6157527;23;20703;-79
2023/05/24 05:58:15;;;;;;;20.08;4.85;;;13.20;90.70;;;12.61;100.00;97627.78;6157901;23;20374;-79
2023/05/24 06:00:42;;;;;;;19.77;4.93;;;13.30;91.40;;;12.77;98.77;97634.78;6155940;23;20371;-79
2023/05/24 06:03:08;;;;;;;20.73;5.20;;;13.40;91.00;;;12.90;98.35;97622.88;6154095;23;20454;-78
2023/05/24 06:05:34;;;;;;;17.88;5.18;;;13.60;90.80;;;12.88;95.92;97624.97;6157445;23;20425;-79
2023/05/24 06:07:59;;;;;;;14.27;4.32;;;13.50;90.10;;;12.99;95.28;97629.28;6157016;23;20398;-79
2023/05/24 06:10:26;;;;;;;18.83;4.97;;;13.60;90.00;;;12.92;92.19;97626.88;6156563;23;20839;-79
2023/05/24 06:12:53;;;;;;;16.10;4.90;;;13.70;88.50;;;13.05;94.49;97623.72;6156513;23;20727;-77
2023/05/24 06:15:21;;;;;;;18.55;5.60;;;13.70;89.50;;;13.27;93.92;97622.75;6157225;23;20367;-78
2023/05/24 06:17:50;;;;;;;18.55;5.32;;;13.90;89.40;;;13.33;91.82;97621.69;6156131;23;20482;-78
2023/05/24 06:20:16;;;;;;;19.48;5.75;;;14.00;88.30;;;13.44;90.91;97624.13;6157263;23;20371;-78
2023/05/24 06:22:43;;;;;;;15.48;5.13;;;14.00;87.50;;;13.57;90.24;97618.28;6155620;23;20442;-78
2023/05/24 06:25:14;;;;;;;23.40;5.60;;;14.20;87.20;;;13.68;89.32;97618.31;6156364;23;20397;-78
2023/05/24 06:27:40;;;;;;;17.23;5.00;;;14.30;86.50;;;13.77;89.58;97622.81;6157019;23;20462;-77
2023/05/24 06:30:08;;;;;;;17.90;4.78;;;14.40;86.80;;;13.80;87.46;97621.50;6156988;23;20362;-78
2023/05/24 06:32:34;;;;;;;22.35;6.13;;;14.50;85.20;;;13.84;86.78;97625.22;6155249;23;20378;-79
2023/05/24 06:35:01;;;;;;;17.70;4.33;;;14.40;84.70;;;13.85;86.57;97624.97;6156494;23;20699;-78
2023/05/24 06:37:29;;;;;;;17.45;5.25;;;14.50;84.60;;;13.83;87.13;97626.31;6156808;23;20370;-77
2023/05/24 06:39:55;;;;;;;16.13;5.10;;;14.40;85.10;;;13.80;86.79;97627.63;6157006;23;20371;-78
2023/05/24 06:42:21;;;;;;;42.67;5.68;;;14.50;84.90;;;13.92;86.96;97630.81;6156118;23;20417;-79
2023/05/24 06:44:47;;;;;;;31.23;6.00;;;14.50;85.30;;;13.93;85.11;97636.94;6156865;23;20375;-77
2023/05/24 06:47:15;;;;;;;21.65;5.15;;;14.60;83.70;;;13.84;86.48;97634.00;6153270;23;20394;-79
2023/05/24 06:49:42;;;;;;;17.45;5.07;;;14.50;84.70;;;13.72;86.05;97635.34;6125844;23;20383;-78
2023/05/24 06:52:09;;;;;;;25.52;6.32;;;14.40;84.30;;;13.72;87.43;97630.81;6127574;23;20382;-79
2023/05/24 06:54:35;;;;;;;22.75;5.50;;;14.40;85.60;;;13.67;88.08;97643.31;6154382;23;20377;-78
2023/05/24 06:57:02;;;;;;;18.40;5.03;;;14.30;85.70;;;13.62;89.66;97646.75;6155800;23;20857;-79
2023/05/24 06:59:28;;;;;;;23.27;5.18;;;14.30;87.10;;;13.73;86.59;97651.03;6154089;23;20405;-78
2023/05/24 07:01:56;;;;;;;25.30;5.20;;;14.30;84.90;;;13.52;86.71;97652.88;6153120;23;20843;-76
2023/05/24 07:04:23;;;;;;;23.30;5.00;;;14.20;84.90;;;13.51;88.13;97656.59;6155212;23;20421;-81
2023/05/24 07:06:49;;;;;;;18.80;5.35;;;14.20;86.10;;;13.49;89.90;97656.03;6128988;23;20398;-80
2023/05/24 07:09:17;;;;;;;24.83;5.97;;;14.10;87.00;;;13.35;90.16;97667.44;6152720;23;20465;-80
2023/05/24 07:11:43;;;;;;;19.00;4.82;;;14.10;87.30;;;13.31;90.32;97664.50;6154425;23;20367;-81
2023/05/24 07:14:09;;;;;;;20.00;5.53;;;14.00;87.40;;;13.28;89.64;97665.03;6153363;23;20379;-81
2023/05/24 07:16:35;;;;;;;24.08;5.60;;;14.00;87.00;;;13.34;89.56;97669.31;6154666;23;20731;-80
2023/05/24 07:19:01;;;;;;;23.23;5.60;;;14.00;87.00;;;13.22;88.61;97674.06;6152486;23;20720;-80
2023/05/24 07:21:27;;;;;;;21.23;4.50;;;13.90;86.00;;;13.14;88.74;97677.22;6154860;23;20371;-80
2023/05/24 07:23:53;;;;;;;19.70;5.28;;;13.80;86.40;;;13.16;90.64;97680.38;6155395;23;20443;-81
2023/05/24 07:26:23;;;;;;;17.33;5.57;;;13.80;87.90;;;13.20;89.50;97681.47;6154126;23;20409;-81
2023/05/24 07:28:49;;;;;;;26.55;6.28;;;13.80;87.30;;;13.18;89.76;97687.06;6155116;23;20418;-80
2023/05/24 07:31:15;;;;;;;27.60;5.82;;;13.80;87.20;;;13.14;89.00;97687.84;6154714;23;20862;-79
2023/05/24 07:33:41;;;;;;;18.52;5.15;;;13.90;86.80;;;13.12;90.55;97693.38;6153051;23;20375;-78
2023/05/24 07:36:07;;;;;;;25.65;5.35;;;13.80;87.70;;;13.11;89.39;97688.31;6153307;23;20736;-78
2023/05/24 07:38:34;;;;;;;19.45;5.10;;;13.80;87.40;;;13.18;89.91;97697.69;6153891;23;20447;-79
2023/05/24 07:41:05;;;;;;;26.70;6.20;;;13.80;87.40;;;13.53;90.03;97693.56;6152903;23;20752;-82
2023/05/24 07:43:32;;;;;;;22.83;5.77;;;14.10;87.80;;;13.55;89.25;97696.75;6152319;23;20369;-80
2023/05/24 07:45:58;;;;;;;22.77;5.10;;;14.20;87.10;;;13.41;87.89;97687.66;6153747;23;20426;-80
2023/05/24 07:48:24;;;;;;;22.73;6.22;;;14.20;85.60;;;13.59;89.78;97694.38;6154409;23;20478;-80
2023/05/24 07:50:51;;;;;;;17.73;5.07;;;14.30;87.20;;;13.75;88.41;97690.69;6155216;23;20916;-79
2023/05/24 07:53:18;;;;;;;20.88;5.05;;;14.40;86.30;;;13.76;86.15;97689.59;6155275;23;20371;-81
2023/05/24 07:55:44;;;;;;;17.50;5.45;;;14.40;84.50;;;13.99;86.44;97696.28;6154947;23;20377;-79
2023/05/24 07:58:10;;;;;;;18.00;5.03;;;14.60;85.30;;;13.90;84.34;97693.38;6155162;23;20363;-80
2023/05/24 08:00:37;;;;;;;23.03;5.30;;;14.60;83.60;;;14.15;84.60;97690.72;6154134;23;20406;-81
2023/05/24 08:03:04;;;;;;;35.50;5.70;;;14.70;84.10;;;14.42;87.07;97697.66;6152250;23;20367;-80
2023/05/24 08:05:30;;;;;;;55.10;7.38;;;15.00;85.50;;;14.45;84.97;97705.09;6154277;23;20371;-78
2023/05/24 08:07:56;;;;;;;30.17;6.10;;;15.10;84.20;;;14.44;83.99;97704.31;6156408;23;20378;-79
2023/05/24 08:10:23;;;;;;;21.98;5.45;;;15.10;83.20;;;14.38;82.59;97707.22;6154779;23;20371;-78
2023/05/24 08:12:53;;;;;;;28.20;6.18;;;15.00;82.20;;;14.14;82.50;97710.41;6153495;23;20370;-80
2023/05/24 08:15:19;;;;;;;23.38;5.25;;;14.90;81.90;;;14.37;83.20;97703.75;6154244;23;20776;-80
2023/05/24 08:17:46;;;;;;;22.27;5.47;;;14.90;83.40;;;14.52;84.00;97708.28;6152428;23;20371;-80
2023/05/24 08:20:16;;;;;;;33.15;5.60;;;15.10;83.50;;;14.56;83.16;97712.84;6151833;23;20367;-80
2023/05/24 08:22:43;;;;;;;25.00;5.65;;;15.20;83.10;;;14.28;81.91;97708.81;6152220;23;20703;-81
2023/05/24 08:25:10;;;;;;;28.40;6.00;;;15.00;81.40;;;14.32;82.97;97725.06;6153867;23;20459;-81
2023/05/24 08:27:36;;;;;;;26.17;5.20;;;15.00;82.50;;;14.37;82.13;97719.72;6152305;23;20383;-80
2023/05/24 08:30:03;;;;;;;17.80;5.18;;;15.00;82.20;;;14.39;81.26;97716.84;6152429;23;20356;-81
2023/05/24 08:32:31;;;;;;;17.13;5.68;;;15.00;81.60;;;14.28;81.31;97724.00;6153014;23;20371;-79
2023/05/24 08:34:59;;;;;;;28.20;5.72;;;14.90;81.40;;;14.39;82.12;97720.31;6153294;23;20375;-79
2023/05/24 08:37:25;;;;;;;26.15;6.25;;;15.00;82.40;;;14.39;80.53;97722.16;6153544;23;20394;-80
2023/05/24 08:39:51;;;;;;;20.77;4.70;;;15.10;81.20;;;14.64;80.53;97719.50;6153506;23;20371;-78
2023/05/24 08:42:17;;;;;;;23.17;5.60;;;15.10;81.40;;;14.54;79.48;97722.97;6153593;23;20467;-79
2023/05/24 08:44:51;;;;;;;18.25;5.20;;;15.20;80.30;;;14.55;79.72;97721.91;6153681;23;20747;-80
2023/05/24 08:47:20;;;;;;;16.75;5.10;;;15.20;80.70;;;14.86;79.38;97724.50;6153955;23;20522;-79
2023/05/24 08:49:47;;;;;;;23.40;5.60;;;15.30;80.40;;;15.03;80.09;97723.16;6152258;23;20398;-81
2023/05/24 08:52:15;;;;;;;20.20;5.30;;;15.50;81.10;;;15.34;80.00;97721.16;6152990;23;20371;-81
2023/05/24 08:54:41;;;;;;;21.02;4.80;;;15.90;80.80;;;15.56;79.30;97725.38;6153620;23;20490;-80
2023/05/24 08:57:10;;;;;;;13.63;4.68;;;16.10;80.40;;;15.75;77.44;97721.78;6155040;23;20378;-80
2023/05/24 08:59:38;;;;;;;22.70;5.45;;;16.30;78.80;;;15.80;76.64;97718.28;6155159;23;20370;-79
2023/05/24 09:02:05;;;;;;;18.63;4.85;;;16.40;77.90;;;15.75;74.85;97721.00;6154965;23;20367;-82
2023/05/24 09:04:32;;;;;;;20.17;5.38;;;16.30;76.50;;;15.73;76.62;97718.59;6155275;23;20374;-79
2023/05/24 09:06:59;;;;;;;22.80;5.65;;;16.30;78.10;;;15.24;73.83;97721.22;6156309;23;20715;-78
2023/05/24 09:09:28;;;;;;;21.17;5.35;;;15.90;75.20;;;15.22;76.26;97728.69;6154966;23;20382;-79
2023/05/24 09:11:58;;;;;;;25.42;6.03;;;15.80;78.50;;;14.95;74.58;97723.69;6154194;23;20394;-79
2023/05/24 09:14:24;;;;;;;18.08;5.43;;;15.70;76.30;;;15.01;78.13;97719.94;6154562;23;20442;-79
2023/05/24 09:16:50;;;;;;;19.75;5.78;;;15.60;79.40;;;15.00;77.16;97721.00;6155190;23;20391;-80
2023/05/24 09:19:18;;;;;;;30.55;6.30;;;15.60;78.50;;;14.81;75.77;97719.97;6155688;23;20371;-80
2023/05/24 09:21:44;;;;;;;19.23;5.30;;;15.40;77.20;;;14.68;77.29;97723.19;6152694;23;20382;-80
2023/05/24 09:24:10;;;;;;;21.38;6.40;;;15.30;78.80;;;14.76;76.61;97722.66;6155373;23;20374;-79
2023/05/24 09:26:38;;;;;;;19.30;5.85;;;15.30;78.40;;;14.93;78.56;97720.50;6155602;23;20458;-80
2023/05/24 09:29:06;;;;;;;16.58;5.28;;;15.40;79.90;;;14.89;78.66;97715.97;6154561;23;20371;-81
2023/05/24 09:31:33;;;;;;;27.20;6.10;;;15.50;80.00;;;14.81;78.02;97714.66;6155551;23;20406;-79
2023/05/24 09:34:00;;;;;;;20.70;5.28;;;15.40;79.50;;;14.88;77.53;97717.06;6155692;23;20383;-82
2023/05/24 09:36:28;;;;;;;20.83;5.05;;;15.40;79.20;;;14.96;76.93;97719.94;6158518;23;20383;-81
2023/05/24 09:39:07;;;;;;;24.38;5.78;;;15.50;79.10;;;14.96;77.08;97724.50;6156864;23;20395;-81
2023/05/24 09:41:34;;;;;;;20.23;5.32;;;15.50;78.80;;;15.06;77.59;97738.59;6156330;23;20363;-82
2023/05/24 09:44:02;;;;;;;20.75;5.57;;;15.60;79.20;;;14.88;76.69;97733.84;6153818;23;20672;-80
2023/05/24 09:46:28;;;;;;;20.90;5.28;;;15.60;78.50;;;14.73;77.07;97735.75;6155613;23;20370;-81
2023/05/24 09:48:56;;;;;;;23.63;5.38;;;15.40;78.70;;;14.68;76.86;97737.31;6156688;23;20367;-81
2023/05/24 09:51:23;;;;;;;29.98;6.38;;;15.30;78.90;;;14.66;76.97;97731.47;6158382;23;20375;-80
2023/05/24 09:53:51;;;;;;;21.85;5.88;;;15.30;79.20;;;14.62;78.30;97727.75;6156022;23;20414;-80
2023/05/24 09:56:18;;;;;;;18.30;6.05;;;15.30;79.70;;;14.62;78.16;97733.06;6156589;23;20887;-80
2023/05/24 09:58:44;;;;;;;27.88;5.90;;;15.30;79.90;;;14.65;78.58;97740.53;6158054;23;20406;-78
2023/05/24 10:01:13;;;;;;;20.42;6.32;;;15.30;79.80;;;14.63;78.57;97741.88;6156897;23;20914;-80
2023/05/24 10:03:51;;;;;;;20.23;5.18;;;15.20;80.00;;;14.62;78.17;97737.59;6156592;23;20479;-78
2023/05/24 10:06:18;;;;;;;22.38;5.40;;;15.20;79.60;;;14.67;79.55;97732.25;6155616;23;20375;-79
2023/05/24 10:08:47;;;;;;;17.25;5.57;;;15.30;80.90;;;14.54;78.30;97733.63;6155875;23;20366;-78
2023/05/24 10:11:13;;;;;;;24.00;5.47;;;15.30;79.80;;;14.53;77.50;97739.19;6155504;23;20394;-79